Time;durP1;ratioP1;P1;durP2;ratioP2;P2;SDS_P1;SDS_P2;PMS_P1;PMS_P2;Temp;Humidity;BMP_temperature;BMP_pressure;BME280_temperature;BME280_humidity;BME280_pressure;Samples;Min_cycle;Max_cycle;Signal;HPM_P1;HPM_P2
2023/10/17 00:00:59;;;;;;;;;7.00;6.60;;;;;5.32;79.42;100346.69;5095080;28;8846;-56
2023/10/17 00:03:27;;;;;;;;;6.00;6.00;;;;;5.31;79.33;100349.44;5095306;28;8936;-57
2023/10/17 00:05:56;;;;;;;;;6.20;6.20;;;;;5.27;78.64;100345.22;5094999;28;8822;-57
2023/10/17 00:08:27;;;;;;;;;6.00;5.80;;;;;5.24;79.54;100337.47;5094645;28;9494;-56
2023/10/17 00:10:56;;;;;;;;;1.80;1.80;;;;;5.20;79.05;100335.91;5094890;28;8841;-56
2023/10/17 00:13:38;;;;;;;;;2.60;2.60;;;;;5.16;79.44;100334.38;5095290;28;8845;-57
2023/10/17 00:16:11;;;;;;;;;5.20;4.80;;;;;5.14;79.50;100330.94;5094952;28;8846;-56
2023/10/17 00:18:39;;;;;;;;;6.20;6.20;;;;;5.11;79.35;100326.69;5094673;28;8821;-57
2023/10/17 00:21:20;;;;;;;;;8.60;7.20;;;;;5.09;79.78;100330.34;5113290;28;8820;-57
2023/10/17 00:23:50;;;;;;;;;6.00;5.60;;;;;5.10;78.63;100334.69;5115237;28;8840;-57
2023/10/17 00:26:19;;;;;;;;;4.80;4.80;;;;;5.10;79.68;100330.25;5115656;28;8812;-57
2023/10/17 00:28:48;;;;;;;;;6.60;6.40;;;;;5.12;79.17;100335.44;5108580;28;8802;-57
2023/10/17 00:31:16;;;;;;;;;3.00;3.00;;;;;5.13;79.33;100339.78;5094962;28;9557;-57
2023/10/17 00:33:48;;;;;;;;;6.00;5.20;;;;;5.15;78.83;100341.44;5095003;28;8850;-57
2023/10/17 00:36:16;;;;;;;;;6.60;6.60;;;;;5.18;79.13;100343.06;5094761;28;8826;-54
2023/10/17 00:38:45;;;;;;;;;6.80;5.20;;;;;5.20;79.27;100346.47;5101105;28;8813;-57
2023/10/17 00:41:19;;;;;;;;;6.00;6.00;;;;;5.20;79.09;100335.91;5119652;28;8858;-57
2023/10/17 00:43:46;;;;;;;;;4.00;3.40;;;;;5.22;78.58;100334.03;5109447;28;8850;-57
2023/10/17 00:46:16;;;;;;;;;5.60;5.20;;;;;5.24;78.63;100319.00;5116854;28;8804;-55
2023/10/17 00:49:01;;;;;;;;;9.20;9.20;;;;;5.28;78.65;100329.31;5098793;28;8912;-56
2023/10/17 00:51:28;;;;;;;;;7.80;6.40;;;;;5.32;78.00;100319.44;5098810;28;8914;-57
2023/10/17 00:54:00;;;;;;;;;6.00;6.00;;;;;5.37;78.79;100317.41;5116231;28;8897;-55
2023/10/17 00:56:28;;;;;;;;;7.40;6.40;;;;;5.39;78.40;100315.56;5119089;28;8815;-57
2023/10/17 00:58:57;;;;;;;;;9.20;7.80;;;;;5.42;78.13;100310.09;5119124;28;9767;-58
2023/10/17 01:01:27;;;;;;;;;6.20;6.20;;;;;5.45;78.67;100304.66;5119537;28;8808;-57
2023/10/17 01:03:58;;;;;;;;;3.40;3.20;;;;;5.47;78.66;100302.81;5101822;28;8825;-55
2023/10/17 01:06:36;;;;;;;;;4.00;4.00;;;;;5.45;78.44;100310.78;5098925;28;8849;-57
2023/10/17 01:09:17;;;;;;;;;6.60;6.40;;;;;5.43;78.29;100309.16;5099166;28;8830;-57
2023/10/17 01:11:47;;;;;;;;;7.80;7.40;;;;;5.42;78.49;100310.09;5098901;28;8837;-56
2023/10/17 01:14:18;;;;;;;;;4.40;4.00;;;;;5.41;77.96;100303.13;5097905;28;8841;-57
2023/10/17 01:16:46;;;;;;;;;8.20;7.00;;;;;5.42;78.72;100302.19;5098795;28;8852;-57
2023/10/17 01:19:19;;;;;;;;;9.20;7.80;;;;;5.42;78.22;100299.53;5098429;28;8834;-55
2023/10/17 01:21:47;;;;;;;;;7.00;7.00;;;;;5.42;77.83;100296.91;5098185;28;8834;-57
2023/10/17 01:24:15;;;;;;;;;5.20;4.40;;;;;5.43;78.63;100306.53;5117025;28;8832;-56
2023/10/17 01:26:45;;;;;;;;;3.00;3.00;;;;;5.44;78.04;100302.94;5118276;28;8816;-57
2023/10/17 01:29:12;;;;;;;;;9.40;7.80;;;;;5.45;77.99;100313.44;5117692;28;8820;-56
2023/10/17 01:31:43;;;;;;;;;9.00;8.60;;;;;5.48;78.43;100309.78;5117183;28;8835;-55
2023/10/17 01:34:11;;;;;;;;;9.00;6.80;;;;;5.51;78.20;100309.59;5117949;28;8820;-57
2023/10/17 01:36:39;;;;;;;;;7.80;7.80;;;;;5.53;78.30;100313.88;5117609;28;8832;-57
2023/10/17 01:39:08;;;;;;;;;5.20;4.00;;;;;5.56;78.47;100310.22;5118577;28;8838;-57
2023/10/17 01:41:36;;;;;;;;;10.00;9.20;;;;;5.57;78.48;100319.84;5109415;28;8850;-56
2023/10/17 01:44:03;;;;;;;;;10.40;9.60;;;;;5.57;77.77;100310.16;5097585;28;8813;-55
2023/10/17 01:46:31;;;;;;;;;5.60;5.60;;;;;5.57;78.33;100307.50;5098118;28;8814;-55
2023/10/17 01:49:00;;;;;;;;;9.40;9.00;;;;;5.57;78.49;100315.44;5097990;28;8826;-56
2023/10/17 01:51:28;;;;;;;;;9.00;7.80;;;;;5.55;78.02;100312.00;5104104;28;8819;-57
2023/10/17 01:53:56;;;;;;;;;8.60;6.60;;;;;5.56;78.44;100312.88;5117568;28;8947;-58
2023/10/17 01:56:26;;;;;;;;;11.00;9.80;;;;;5.56;78.25;100303.13;5118251;28;8851;-56
2023/10/17 01:58:55;;;;;;;;;7.80;7.80;;;;;5.56;77.72;100287.28;5117617;28;8819;-56
2023/10/17 02:01:24;;;;;;;;;6.60;6.00;;;;;5.54;78.23;100283.06;5115623;28;8947;-57
2023/10/17 02:03:53;;;;;;;;;4.60;4.00;;;;;5.54;78.39;100283.06;5077470;28;9602;-56
2023/10/17 02:06:22;;;;;;;;;8.60;7.40;;;;;5.52;77.66;100283.13;5076842;28;8820;-56
2023/10/17 02:08:50;;;;;;;;;9.20;8.20;;;;;5.51;77.87;100272.63;5077450;28;8820;-55
2023/10/17 02:11:24;;;;;;;;;7.00;7.00;;;;;5.48;78.09;100276.28;5095108;28;8826;-57
2023/10/17 02:13:53;;;;;;;;;9.00;9.00;;;;;5.48;77.78;100278.94;5097380;28;8834;-56
2023/10/17 02:16:21;;;;;;;;;5.60;5.60;;;;;5.49;78.46;100277.16;5097520;28;8954;-58
2023/10/17 02:18:49;;;;;;;;;6.20;6.20;;;;;5.50;77.97;100273.56;5096918;28;8834;-57
2023/10/17 02:21:20;;;;;;;;;9.60;6.80;;;;;5.50;78.02;100277.09;5096427;28;8806;-57
2023/10/17 02:23:51;;;;;;;;;7.00;7.00;;;;;5.52;78.08;100276.97;5096983;28;8840;-55
2023/10/17 02:26:22;;;;;;;;;10.40;9.40;;;;;5.52;77.91;100279.63;5097082;28;8838;-57
2023/10/17 02:28:50;;;;;;;;;7.40;7.40;;;;;5.53;78.61;100274.25;5097457;28;8936;-57
2023/10/17 02:31:17;;;;;;;;;9.00;7.80;;;;;5.54;77.91;100267.22;5096863;28;8818;-55
2023/10/17 02:33:45;;;;;;;;;8.60;7.00;;;;;5.53;78.42;100268.16;5096814;28;8884;-55
2023/10/17 02:36:13;;;;;;;;;6.20;6.20;;;;;5.55;78.38;100268.91;5096831;28;8946;-57
2023/10/17 02:38:41;;;;;;;;;10.80;9.60;;;;;5.54;78.27;100281.25;5096585;28;8834;-57
2023/10/17 02:41:12;;;;;;;;;11.60;10.40;;;;;5.56;77.87;100281.19;5112936;28;9488;-57
2023/10/17 02:43:41;;;;;;;;;6.40;6.40;;;;;5.56;78.21;100278.53;5117122;28;8904;-57
2023/10/17 02:46:12;;;;;;;;;7.80;6.80;;;;;5.55;77.93;100277.66;5117046;28;8902;-55
2023/10/17 02:48:40;;;;;;;;;7.40;7.40;;;;;5.54;78.49;100273.31;5117065;28;8820;-55
2023/10/17 02:51:30;;;;;;;;;6.00;6.00;;;;;5.52;77.87;100274.34;5100215;28;8945;-56
2023/10/17 02:53:58;;;;;;;;;6.00;6.00;;;;;5.50;78.27;100270.94;5095859;28;8864;-55
2023/10/17 02:56:26;;;;;;;;;6.20;6.00;;;;;5.47;77.99;100266.66;5096237;28;8931;-55
2023/10/17 02:59:04;;;;;;;;;8.60;7.00;;;;;5.46;78.23;100264.13;5096125;28;8944;-54
2023/10/17 03:01:32;;;;;;;;;9.00;7.00;;;;;5.45;78.06;100267.69;5101912;28;8828;-55
2023/10/17 03:03:59;;;;;;;;;6.60;6.60;;;;;5.43;78.42;100278.34;5095637;28;8840;-57
2023/10/17 03:06:27;;;;;;;;;7.00;7.00;;;;;5.42;78.65;100281.06;5096290;28;8826;-55
2023/10/17 03:09:01;;;;;;;;;4.00;3.80;;;;;5.38;78.40;100277.72;5095911;28;8864;-55
2023/10/17 03:11:36;;;;;;;;;1.00;0.00;;;;;5.38;78.66;100268.97;5114317;28;8788;-57
2023/10/17 03:14:12;;;;;;;;;8.00;6.40;;;;;5.38;77.98;100274.25;5116404;28;8820;-56
2023/10/17 03:16:40;;;;;;;;;7.00;7.00;;;;;5.34;78.72;100278.84;5116617;28;9560;-57
2023/10/17 03:19:11;;;;;;;;;3.40;3.00;;;;;5.34;78.49;100285.91;5116479;28;8816;-57
2023/10/17 03:21:43;;;;;;;;;6.00;4.40;;;;;5.32;78.25;100278.03;5095575;28;8830;-56
2023/10/17 03:24:13;;;;;;;;;9.40;8.60;;;;;5.30;78.23;100266.72;5095637;28;8798;-55
2023/10/17 03:26:40;;;;;;;;;10.60;9.60;;;;;5.32;78.53;100261.38;5095267;28;8842;-57
2023/10/17 03:29:14;;;;;;;;;4.00;3.20;;;;;5.31;78.66;100265.78;5095364;28;8849;-54
2023/10/17 03:31:45;;;;;;;;;12.80;11.60;;;;;5.29;78.69;100267.66;5095066;28;8818;-57
2023/10/17 03:34:13;;;;;;;;;7.40;7.40;;;;;5.28;78.35;100255.41;5095361;28;8950;-56
2023/10/17 03:36:42;;;;;;;;;10.00;10.00;;;;;5.26;78.71;100253.78;5095434;28;8818;-55
2023/10/17 03:39:20;;;;;;;;;7.00;6.40;;;;;5.26;78.76;100262.53;5094832;28;8829;-57
2023/10/17 03:41:48;;;;;;;;;7.00;7.00;;;;;5.26;79.16;100261.69;5094768;28;8814;-54
2023/10/17 03:44:16;;;;;;;;;6.60;6.60;;;;;5.27;78.69;100263.38;5094625;28;8838;-56
2023/10/17 03:46:48;;;;;;;;;9.00;9.00;;;;;5.25;78.94;100250.25;5094579;28;8826;-56
2023/10/17 03:49:18;;;;;;;;;8.40;6.80;;;;;5.27;78.38;100258.97;5094920;28;8865;-55
2023/10/17 03:51:47;;;;;;;;;7.40;7.40;;;;;5.27;78.81;100255.47;5094719;28;8826;-57
2023/10/17 03:54:18;;;;;;;;;7.40;7.40;;;;;5.29;79.02;100251.81;5095307;28;8821;-57
2023/10/17 03:56:46;;;;;;;;;8.40;7.40;;;;;5.31;78.89;100249.94;5094907;28;8865;-57
2023/10/17 03:59:30;;;;;;;;;9.20;9.00;;;;;5.33;78.65;100247.22;5096173;28;8810;-57
2023/10/17 04:01:58;;;;;;;;;10.40;10.40;;;;;5.35;78.55;100250.63;5098858;28;8816;-56
2023/10/17 04:04:33;;;;;;;;;7.80;7.80;;;;;5.35;78.57;100254.13;5114864;28;8823;-56
2023/10/17 04:07:02;;;;;;;;;7.40;6.40;;;;;5.36;78.62;100253.19;5114503;28;8828;-55
2023/10/17 04:09:32;;;;;;;;;9.00;7.80;;;;;5.35;78.25;100256.78;5114151;28;8820;-55
2023/10/17 04:12:03;;;;;;;;;6.80;6.60;;;;;5.34;77.96;100247.16;5094179;28;8814;-57
2023/10/17 04:14:33;;;;;;;;;5.60;4.80;;;;;5.33;78.81;100248.06;5094442;28;8876;-55
2023/10/17 04:17:03;;;;;;;;;7.80;6.20;;;;;5.32;78.71;100256.09;5094342;28;8856;-58
2023/10/17 04:19:32;;;;;;;;;8.80;8.20;;;;;5.32;78.31;100253.44;5094284;28;8943;-58
2023/10/17 04:22:07;;;;;;;;;6.80;6.20;;;;;5.31;77.96;100259.66;5074658;28;8851;-56
2023/10/17 04:24:48;;;;;;;;;7.80;6.00;;;;;5.30;78.00;100253.53;5074263;28;8820;-57
2023/10/17 04:27:22;;;;;;;;;9.60;9.60;;;;;5.28;78.57;100250.13;5074180;28;8839;-56
2023/10/17 04:29:56;;;;;;;;;5.60;5.60;;;;;5.28;78.31;100249.25;5074216;28;8836;-56
2023/10/17 04:32:28;;;;;;;;;7.40;6.40;;;;;5.28;78.11;100254.53;5083705;28;8818;-55
2023/10/17 04:34:57;;;;;;;;;4.80;4.40;;;;;5.28;78.18;100254.53;5094223;28;8834;-57
2023/10/17 04:37:34;;;;;;;;;9.60;8.60;;;;;5.27;77.89;100260.75;5094233;28;8830;-56
2023/10/17 04:42:56;;;;;;;;;6.20;5.60;;;;;5.27;78.61;100271.31;5088986;28;8893;-55
2023/10/17 04:45:23;;;;;;;;;6.00;5.20;;;;;5.27;78.54;100268.66;5093527;28;8834;-55
2023/10/17 04:48:10;;;;;;;;;5.20;4.00;;;;;5.27;78.10;100252.81;5093845;28;8829;-55
2023/10/17 04:50:44;;;;;;;;;4.00;4.00;;;;;5.28;78.59;100260.69;5093219;28;8858;-55
2023/10/17 04:53:19;;;;;;;;;7.00;6.60;;;;;5.31;78.31;100265.78;5093680;28;8871;-57
2023/10/17 04:58:47;;;;;;;;;14.60;12.40;;;;;5.41;78.58;100266.97;5128090;27;13365;-57
2023/10/17 05:01:32;;;;;;;;;12.00;10.80;;;;;5.50;77.69;100278.84;5110498;28;8823;-56
2023/10/17 05:03:59;;;;;;;;;10.40;7.80;;;;;5.60;77.52;100277.41;5090489;28;8830;-56
2023/10/17 06:16:49;;;;;;;;;6.60;4.40;;;;;5.65;77.56;100270.97;5109880;28;8862;-57
2023/10/17 06:19:08;;;;;;;;;8.80;6.40;;;;;5.58;78.55;100296.00;5094798;28;8845;-57
2023/10/17 06:21:54;;;;;;;;;4.80;4.80;;;;;5.59;78.18;100302.13;5095163;28;8854;-57
2023/10/17 06:24:45;;;;;;;;;5.20;5.20;;;;;5.61;77.86;100303.75;5095258;28;8830;-58
2023/10/17 06:27:51;;;;;;;;;5.60;5.20;;;;;5.62;77.74;100302.81;5095805;28;8842;-55
2023/10/17 06:33:04;;;;;;;;;6.00;6.00;;;;;5.72;77.96;100303.19;5093860;28;8857;-57
2023/10/17 06:35:31;;;;;;;;;6.00;5.60;;;;;5.74;77.72;100306.59;5094700;28;8833;-57
2023/10/17 06:37:59;;;;;;;;;7.00;7.00;;;;;5.77;78.11;100311.72;5095339;28;9027;-58
2023/10/17 06:40:30;;;;;;;;;6.00;4.00;;;;;5.79;78.21;100315.13;5094873;28;8822;-57
2023/10/17 06:42:59;;;;;;;;;5.20;5.20;;;;;5.82;78.03;100307.06;5094513;28;8848;-59
2023/10/17 06:45:27;;;;;;;;;3.20;3.20;;;;;5.84;78.08;100307.84;5094903;28;8825;-58
2023/10/17 06:47:58;;;;;;;;;8.60;7.80;;;;;5.88;77.40;100307.59;5095070;28;8918;-58
2023/10/17 06:53:15;;;;;;;;;6.20;6.00;;;;;5.93;77.24;100320.53;5094320;28;8834;-55
2023/10/17 06:55:44;;;;;;;;;7.00;5.60;;;;;5.97;77.37;100315.00;5095096;28;8845;-56
2023/10/17 06:58:14;;;;;;;;;7.00;7.00;;;;;6.00;77.85;100308.69;5095088;28;8834;-57
2023/10/17 07:00:51;;;;;;;;;7.00;7.00;;;;;6.03;77.90;100308.53;5094929;28;8848;-57
2023/10/17 07:03:24;;;;;;;;;9.00;7.00;;;;;6.05;77.44;100307.50;5094964;28;8903;-56
2023/10/17 07:05:55;;;;;;;;;7.20;6.80;;;;;6.10;77.55;100297.53;5094871;28;8842;-56
2023/10/17 07:08:23;;;;;;;;;8.40;6.60;;;;;6.14;77.74;100291.13;5094976;28;8822;-56
2023/10/17 07:11:09;;;;;;;;;3.60;3.60;;;;;6.18;76.83;100297.97;5094993;28;8825;-55
2023/10/17 07:13:39;;;;;;;;;5.20;3.00;;;;;6.21;77.59;100291.66;5094911;28;8862;-58
2023/10/17 07:16:11;;;;;;;;;4.00;3.00;;;;;6.23;77.00;100292.41;5093722;28;8849;-58
2023/10/17 07:18:47;;;;;;;;;7.00;7.00;;;;;6.26;77.07;100292.22;5094791;28;8922;-56
2023/10/17 07:21:17;;;;;;;;;3.40;3.40;;;;;6.30;77.29;100284.03;5094442;28;8858;-57
2023/10/17 07:23:45;;;;;;;;;6.20;5.60;;;;;6.37;77.10;100281.91;5095395;28;8842;-57
2023/10/17 07:26:17;;;;;;;;;8.20;8.20;;;;;6.44;76.99;100280.63;5095091;28;8871;-57
2023/10/17 07:28:45;;;;;;;;;6.60;4.60;;;;;6.53;76.50;100283.56;5094849;28;9680;-57
2023/10/17 07:31:12;;;;;;;;;3.00;3.00;;;;;6.61;76.90;100288.44;5094513;28;8979;-58
2023/10/17 07:33:41;;;;;;;;;5.20;5.20;;;;;6.71;76.33;100277.22;5093925;28;8830;-58
2023/10/17 07:36:15;;;;;;;;;6.00;6.00;;;;;6.80;76.45;100281.09;5093534;28;8830;-56
2023/10/17 07:38:44;;;;;;;;;7.60;7.40;;;;;6.92;76.08;100280.38;5094208;28;9488;-57
2023/10/17 07:41:14;;;;;;;;;6.40;4.80;;;;;7.04;75.92;100282.31;5094123;28;8833;-57
2023/10/17 07:43:44;;;;;;;;;1.00;1.00;;;;;7.17;75.80;100293.84;5094018;28;8853;-58
2023/10/17 07:46:16;;;;;;;;;7.00;6.60;;;;;7.28;75.90;100288.78;5094427;28;8866;-57
2023/10/17 07:48:48;;;;;;;;;4.80;4.80;;;;;7.37;75.46;100289.09;5094176;28;8830;-57
2023/10/17 07:51:16;;;;;;;;;8.60;7.00;;;;;7.43;75.55;100285.19;5094834;28;8930;-55
2023/10/17 07:53:46;;;;;;;;;6.40;6.20;;;;;7.52;75.31;100276.69;5093850;28;8844;-58
2023/10/17 07:56:20;;;;;;;;;6.00;5.60;;;;;7.58;75.02;100273.66;5093673;28;8834;-56
2023/10/17 07:58:56;;;;;;;;;7.80;7.00;;;;;7.63;75.06;100263.59;5094173;28;9569;-55
2023/10/17 08:01:31;;;;;;;;;9.00;7.80;;;;;7.69;74.70;100274.69;5094226;28;9870;-57
2023/10/17 08:04:13;;;;;;;;;8.60;8.20;;;;;7.73;75.10;100263.78;5094355;28;8826;-56
2023/10/17 08:06:41;;;;;;;;;6.40;6.00;;;;;7.74;75.09;100262.84;5093996;28;8950;-56
2023/10/17 08:09:23;;;;;;;;;4.40;4.40;;;;;7.72;75.24;100266.53;5094105;28;8822;-57
2023/10/17 08:11:54;;;;;;;;;5.60;5.60;;;;;7.68;75.31;100268.53;5093683;28;8778;-58
2023/10/17 08:14:26;;;;;;;;;7.00;6.20;;;;;7.67;75.75;100281.91;5094110;28;8989;-57
2023/10/17 08:16:57;;;;;;;;;8.20;7.80;;;;;7.68;75.70;100274.78;5093963;28;8841;-59
2023/10/17 08:19:30;;;;;;;;;7.80;7.00;;;;;7.68;75.83;100281.78;5094016;28;8829;-57
2023/10/17 08:22:09;;;;;;;;;11.80;9.60;;;;;7.75;75.59;100277.78;5093226;28;8849;-58
2023/10/17 08:24:44;;;;;;;;;9.00;9.00;;;;;7.90;75.05;100276.81;5093527;28;8829;-55
2023/10/17 08:27:41;;;;;;;;;10.40;10.00;;;;;8.09;74.75;100273.84;5092985;28;8830;-58
2023/10/17 08:30:14;;;;;;;;;3.75;3.75;;;;;8.20;74.51;100274.06;5092635;28;8826;-57
2023/10/17 08:32:58;;;;;;;;;6.80;6.40;;;;;8.31;74.28;100274.22;5092382;28;8833;-58
2023/10/17 08:35:37;;;;;;;;;6.75;6.00;;;;;8.44;74.25;100267.16;5093165;28;8841;-57
2023/10/17 08:38:06;;;;;;;;;6.25;4.50;;;;;8.60;74.14;100265.19;5092482;28;8842;-58
2023/10/17 08:40:40;;;;;;;;;7.00;6.00;;;;;8.72;73.45;100267.88;5093194;28;8856;-55
2023/10/17 08:43:07;;;;;;;;;6.50;6.00;;;;;8.79;73.14;100263.84;5092705;28;8833;-57
2023/10/17 08:45:36;;;;;;;;;9.25;8.50;;;;;8.81;73.46;100264.59;5093249;28;8980;-55
2023/10/17 08:48:08;;;;;;;;;1.50;1.50;;;;;8.85;73.66;100262.59;5093355;28;8894;-56
2023/10/17 08:50:39;;;;;;;;;7.00;6.25;;;;;8.90;73.78;100263.13;5093267;28;8842;-58
2023/10/17 08:53:12;;;;;;;;;6.25;6.25;;;;;8.96;73.58;100258.25;5093181;28;8837;-56
2023/10/17 08:55:41;;;;;;;;;12.00;9.00;;;;;9.03;73.24;100251.56;5093364;28;8822;-55
2023/10/17 08:58:11;;;;;;;;;6.50;6.00;;;;;9.12;73.71;100247.44;5093582;28;8814;-56
2023/10/17 09:00:55;;;;;;;;;4.00;4.00;;;;;9.21;73.36;100246.78;5094112;28;8834;-58
2023/10/17 09:03:28;;;;;;;;;4.00;4.00;;;;;9.30;73.33;100248.81;5093535;28;8927;-59
2023/10/17 09:06:05;;;;;;;;;3.75;3.50;;;;;9.39;73.15;100253.47;5093295;28;8833;-58
2023/10/17 09:08:44;;;;;;;;;7.00;6.00;;;;;9.48;73.47;100252.88;5093811;28;8830;-55
2023/10/17 09:11:25;;;;;;;;;8.00;6.25;;;;;9.53;72.58;100246.25;5093818;28;8864;-59
2023/10/17 09:16:41;;;;;;;;;7.00;6.00;;;;;9.66;72.68;100246.22;5092793;28;9605;-56
2023/10/17 09:19:10;;;;;;;;;7.50;7.00;;;;;9.72;72.90;100246.63;5092987;28;8984;-59
2023/10/17 09:21:41;;;;;;;;;6.00;6.00;;;;;9.77;72.73;100244.50;5093440;28;9515;-57
2023/10/17 09:24:09;;;;;;;;;6.50;5.75;;;;;9.84;72.91;100253.75;5093138;28;8890;-56
2023/10/17 09:26:38;;;;;;;;;3.75;3.75;;;;;9.90;72.24;100248.00;5092974;28;8830;-57
2023/10/17 09:29:06;;;;;;;;;7.50;7.00;;;;;9.95;72.57;100251.16;5092559;28;8894;-57
2023/10/17 09:31:34;;;;;;;;;3.00;1.00;;;;;10.03;72.12;100251.47;5092156;28;8849;-56
2023/10/17 09:34:02;;;;;;;;;6.25;5.50;;;;;10.10;72.13;100255.41;5091800;28;8829;-57
2023/10/17 09:36:30;;;;;;;;;4.00;3.25;;;;;10.18;72.16;100252.19;5092735;28;8833;-57
2023/10/17 09:38:58;;;;;;;;;9.00;7.50;;;;;10.28;72.19;100250.56;5093014;28;8834;-58
2023/10/17 09:41:27;;;;;;;;;4.00;3.00;;;;;10.36;72.23;100251.69;5093192;28;8832;-57
2023/10/17 09:43:55;;;;;;;;;6.00;6.00;;;;;10.49;72.04;100249.84;5094412;28;8849;-58
2023/10/17 09:46:23;;;;;;;;;4.00;4.00;;;;;10.60;71.56;100239.22;5096847;28;8826;-57
2023/10/17 09:48:52;;;;;;;;;5.00;5.00;;;;;10.73;72.00;100240.00;5096456;28;8822;-58
2023/10/17 09:51:20;;;;;;;;;5.00;3.50;;;;;10.88;71.02;100236.19;5096237;28;8846;-56
2023/10/17 09:53:49;;;;;;;;;6.50;6.00;;;;;11.06;71.05;100229.44;5096450;28;8910;-56
2023/10/17 09:56:20;;;;;;;;;1.00;1.00;;;;;11.27;70.31;100230.44;5096336;28;8825;-57
2023/10/17 09:58:48;;;;;;;;;7.75;5.50;;;;;11.48;70.80;100223.44;5096572;28;8853;-58
2023/10/17 10:01:21;;;;;;;;;6.00;6.00;;;;;11.73;70.08;100217.88;5096241;28;8841;-58
2023/10/17 10:03:49;;;;;;;;;4.75;4.00;;;;;12.02;69.57;100208.38;5096859;28;8817;-59
2023/10/17 10:06:17;;;;;;;;;6.50;6.25;;;;;12.29;69.62;100212.28;5096454;28;8814;-57
2023/10/17 10:08:45;;;;;;;;;4.00;4.00;;;;;12.54;69.40;100211.13;5096805;28;8838;-57
2023/10/17 10:11:13;;;;;;;;;5.00;5.00;;;;;12.73;69.33;100203.25;5095530;28;8838;-55
2023/10/17 10:13:40;;;;;;;;;6.00;5.50;;;;;12.95;69.62;100209.38;5095516;28;8836;-57
2023/10/17 10:16:08;;;;;;;;;4.00;3.50;;;;;13.17;69.27;100203.88;5095976;28;8852;-57
2023/10/17 10:18:37;;;;;;;;;5.50;4.00;;;;;13.32;69.62;100199.03;5095959;28;8832;-58
2023/10/17 10:21:04;;;;;;;;;6.75;6.75;;;;;13.45;69.06;100196.97;5096161;28;8857;-57
2023/10/17 10:23:32;;;;;;;;;5.25;3.75;;;;;13.57;68.60;100206.59;5095901;28;8849;-59
2023/10/17 10:26:14;;;;;;;;;7.00;5.00;;;;;13.65;68.67;100196.91;5096161;28;8854;-57
2023/10/17 10:28:42;;;;;;;;;6.25;6.25;;;;;13.74;68.50;100192.59;5095761;28;8834;-58
2023/10/17 10:31:10;;;;;;;;;6.00;5.50;;;;;13.89;68.65;100184.03;5094619;28;8971;-56
2023/10/17 10:33:38;;;;;;;;;6.00;4.50;;;;;14.25;67.45;100183.44;5094169;28;8838;-57
2023/10/17 10:36:06;;;;;;;;;4.75;3.75;;;;;14.93;66.24;100180.59;5095643;28;8834;-57
2023/10/17 10:38:34;;;;;;;;;4.00;3.50;;;;;15.78;63.78;100168.75;5095643;28;8845;-57
2023/10/17 10:41:02;;;;;;;;;3.50;3.50;;;;;16.46;62.50;100174.41;5096383;28;8908;-57
2023/10/17 10:43:30;;;;;;;;;3.25;3.25;;;;;16.76;62.07;100171.31;5095817;28;8830;-59
2023/10/17 10:46:00;;;;;;;;;2.60;2.60;;;;;16.85;62.08;100173.06;5095435;28;8837;-56
2023/10/17 10:48:28;;;;;;;;;4.00;3.00;;;;;17.04;62.45;100172.91;5095508;28;8872;-56
2023/10/17 10:50:57;;;;;;;;;2.60;2.60;;;;;17.18;62.07;100163.41;5095287;28;8842;-58
2023/10/17 10:53:28;;;;;;;;;1.00;1.00;;;;;16.95;62.59;100160.38;5095179;28;8881;-56
2023/10/17 10:56:00;;;;;;;;;3.00;3.00;;;;;16.60;63.83;100160.44;5095198;28;8907;-59
2023/10/17 10:58:28;;;;;;;;;6.80;4.40;;;;;16.21;65.02;100163.53;5094339;28;8838;-57
2023/10/17 11:00:58;;;;;;;;;3.60;3.60;;;;;15.91;65.39;100168.41;5094708;28;8984;-57
2023/10/17 11:03:26;;;;;;;;;3.00;3.00;;;;;15.65;65.63;100164.72;5094678;28;8925;-57
2023/10/17 11:05:58;;;;;;;;;3.00;3.00;;;;;15.42;66.18;100161.59;5095275;28;8841;-57
2023/10/17 11:08:26;;;;;;;;;3.50;3.50;;;;;15.26;66.79;100153.25;5094230;28;8833;-57
2023/10/17 11:10:54;;;;;;;;;3.80;3.80;;;;;15.15;66.93;100149.91;5095238;28;8853;-58
2023/10/17 11:13:22;;;;;;;;;4.00;3.50;;;;;15.10;67.26;100152.19;5094889;28;8850;-57
2023/10/17 11:15:50;;;;;;;;;4.00;4.00;;;;;15.10;67.20;100154.88;5093802;28;9508;-58
2023/10/17 11:18:20;;;;;;;;;6.00;5.00;;;;;15.22;66.14;100159.91;5094867;28;8915;-60
2023/10/17 11:20:48;;;;;;;;;4.75;3.50;;;;;15.28;66.11;100153.97;5092246;28;8873;-57
2023/10/17 11:23:16;;;;;;;;;4.00;3.50;;;;;15.39;66.49;100152.97;5093541;28;8822;-57
2023/10/17 11:25:44;;;;;;;;;5.75;5.75;;;;;15.53;66.34;100147.97;5093851;28;8822;-58
2023/10/17 11:28:12;;;;;;;;;7.00;7.00;;;;;15.73;65.65;100151.41;5093357;28;8883;-58
2023/10/17 11:30:41;;;;;;;;;8.00;7.00;;;;;15.95;65.06;100149.16;5093204;28;8838;-57
2023/10/17 11:33:10;;;;;;;;;9.25;9.25;;;;;16.08;65.45;100141.56;5094387;28;8846;-58
2023/10/17 11:35:38;;;;;;;;;12.00;10.00;;;;;16.23;65.08;100130.13;5093452;28;8836;-58
2023/10/17 11:38:07;;;;;;;;;9.00;9.00;;;;;16.22;65.17;100126.78;5093252;28;8907;-58
2023/10/17 11:40:45;;;;;;;;;9.00;7.00;;;;;16.18;65.12;100129.75;5093742;28;9523;-57
2023/10/17 11:43:13;;;;;;;;;6.00;6.00;;;;;16.19;65.25;100118.00;5093364;28;8822;-57
2023/10/17 11:45:41;;;;;;;;;7.00;7.00;;;;;16.27;65.56;100120.75;5093499;28;8866;-57
2023/10/17 11:48:14;;;;;;;;;7.80;6.40;;;;;16.72;64.16;100121.53;5092626;28;8852;-58
2023/10/17 11:50:42;;;;;;;;;7.00;6.20;;;;;17.14;63.13;100108.19;5092706;28;8857;-58
2023/10/17 11:53:12;;;;;;;;;6.20;6.20;;;;;17.17;63.08;100116.78;5092732;28;8860;-57
2023/10/17 11:55:40;;;;;;;;;7.80;6.80;;;;;17.56;62.62;100112.66;5092973;28;8834;-57
2023/10/17 11:58:08;;;;;;;;;4.80;2.60;;;;;18.11;61.21;100100.34;5092977;28;8968;-58
2023/10/17 12:00:36;;;;;;;;;3.40;3.40;;;;;18.57;60.29;100099.75;5093635;28;8857;-58
2023/10/17 12:03:04;;;;;;;;;6.20;5.60;;;;;19.21;59.46;100101.56;5093639;28;8986;-58
2023/10/17 12:05:35;;;;;;;;;6.80;6.40;;;;;19.50;58.51;100099.91;5094172;28;8825;-56
2023/10/17 12:08:03;;;;;;;;;11.00;8.60;;;;;19.36;59.18;100097.13;5094037;28;8818;-59
2023/10/17 12:10:36;;;;;;;;;6.60;6.20;;;;;19.44;59.39;100106.03;5093834;28;8817;-58
2023/10/17 12:13:07;;;;;;;;;4.80;4.80;;;;;19.26;59.94;100104.59;5093502;28;8846;-58
2023/10/17 12:15:37;;;;;;;;;3.00;3.00;;;;;18.71;61.33;100117.09;5093793;28;8906;-58
2023/10/17 12:18:06;;;;;;;;;6.20;6.00;;;;;18.05;62.82;100116.31;5093301;28;8834;-58
2023/10/17 12:20:40;;;;;;;;;5.80;5.20;;;;;17.75;63.36;100111.56;5092641;28;9000;-57
2023/10/17 12:23:11;;;;;;;;;6.00;5.20;;;;;17.23;63.92;100110.75;5092568;28;8814;-57
2023/10/17 12:25:42;;;;;;;;;6.00;6.00;;;;;17.29;63.80;100114.66;5092820;28;8852;-58
2023/10/17 12:28:10;;;;;;;;;6.00;4.40;;;;;18.11;62.05;100103.06;5093291;28;8903;-59
2023/10/17 12:30:40;;;;;;;;;5.40;5.20;;;;;19.07;59.61;100088.72;5093267;28;8842;-57
2023/10/17 12:33:08;;;;;;;;;4.00;4.00;;;;;19.90;57.68;100088.09;5093572;28;8949;-58
2023/10/17 12:35:46;;;;;;;;;6.00;6.00;;;;;20.18;57.14;100073.91;5093561;28;8830;-59
2023/10/17 12:38:24;;;;;;;;;6.00;5.20;;;;;20.22;56.64;100080.66;5093506;28;8837;-58
2023/10/17 12:40:52;;;;;;;;;6.20;6.00;;;;;20.07;57.68;100077.03;5093656;28;8826;-57
2023/10/17 12:43:20;;;;;;;;;8.20;6.60;;;;;19.94;58.04;100074.03;5093745;28;8952;-57
2023/10/17 12:45:51;;;;;;;;;3.00;3.00;;;;;20.05;57.65;100076.38;5093762;28;8842;-57
2023/10/17 12:48:20;;;;;;;;;6.20;4.80;;;;;20.21;57.74;100068.16;5093363;28;8864;-57
2023/10/17 12:50:48;;;;;;;;;4.00;4.00;;;;;20.27;57.28;100059.31;5093577;28;8845;-58
2023/10/17 12:53:16;;;;;;;;;3.00;3.00;;;;;20.19;57.81;100051.22;5093846;28;9638;-58
2023/10/17 12:55:44;;;;;;;;;5.60;5.60;;;;;20.15;57.64;100041.81;5092866;28;8987;-57
2023/10/17 12:58:12;;;;;;;;;6.20;4.80;;;;;20.17;57.67;100042.47;5092662;28;8960;-58
2023/10/17 13:00:41;;;;;;;;;4.00;4.00;;;;;20.29;57.09;100043.72;5092878;28;8968;-58
2023/10/17 13:03:09;;;;;;;;;4.40;4.40;;;;;20.54;56.14;100034.38;5092604;28;8860;-58
2023/10/17 13:05:40;;;;;;;;;6.00;5.60;;;;;20.69;56.42;100032.53;5093105;28;8838;-58
2023/10/17 13:08:08;;;;;;;;;6.60;6.00;;;;;20.64;56.03;100026.81;5093095;28;9527;-58
2023/10/17 13:10:38;;;;;;;;;10.20;7.00;;;;;20.73;55.54;100033.00;5092491;28;9507;-57
2023/10/17 13:13:06;;;;;;;;;4.40;3.20;;;;;20.77;55.86;100026.22;5092258;28;8881;-57
2023/10/17 13:15:34;;;;;;;;;5.80;4.80;;;;;20.84;55.93;100025.28;5092502;28;8822;-57
2023/10/17 13:18:04;;;;;;;;;3.00;3.00;;;;;20.69;55.97;100016.31;5092319;28;9707;-58
2023/10/17 13:20:32;;;;;;;;;6.40;5.20;;;;;20.34;57.16;100014.25;5096771;28;8854;-57